Terminal Aerodrome Forecast
Issued by NWS Twin Cities, MN

Home | Current Version | Previous Version | Graphics & Text | Print | Product List | Glossary On
Versions: 1 2 3 4 5 6 7 8 9 10 11 12 13 14 15 16 17 18 19 20 21 22 23 24 25
000
FTUS43 KMPX 021840 AAA
TAFEAU
TAF AMD
KEAU 021840Z 0219/0318 09007KT P6SM VCTS SCT012 BKN045CB
      TEMPO 0219/0221 2SM +TSRA BR BKN008CB OVC035
     FM022100 10007KT P6SM SCT012 BKN045
      TEMPO 0221/0223 BKN012 BKN040
     FM030000 10004KT P6SM SCT040
     FM030400 11004KT 5SM BR FEW008
     FM030700 11004KT 2SM BR OVC006
     FM031500 13006KT P6SM SCT008 BKN015=

USA.gov is the U.S. government's official web portal to all federal, state and local government web resources and services.